createdAt,value
2023-02-12T00:05:05.545Z,102113.94
2023-02-12T00:10:13.564Z,102127.56
2023-02-12T00:15:20.120Z,102130.84
2023-02-12T00:20:28.053Z,102144.47
2023-02-12T00:25:35.312Z,102144.47
2023-02-12T00:30:42.040Z,102168.31
2023-02-12T00:35:58.506Z,102184.00
2023-02-12T00:41:05.458Z,102194.91
2023-02-12T00:46:12.043Z,102201.00
2023-02-12T00:51:20.213Z,102207.66
2023-02-12T00:56:26.694Z,102215.38
2023-02-12T01:01:33.015Z,102208.41
2023-02-12T01:06:41.430Z,102222.41
2023-02-12T01:11:49.267Z,102236.78
2023-02-12T01:16:56.372Z,102232.47
2023-02-12T01:22:07.493Z,102241.06
2023-02-12T01:27:14.181Z,102244.44
2023-02-12T01:32:20.684Z,102251.28
2023-02-12T01:37:29.011Z,102263.44
2023-02-12T01:42:35.732Z,102267.81
2023-02-12T01:47:43.135Z,102272.28
2023-02-12T01:52:57.838Z,102289.41
2023-02-12T01:58:06.608Z,102290.06
2023-02-12T02:03:13.697Z,102293.50
2023-02-12T02:08:22.185Z,102300.94
2023-02-12T02:13:46.039Z,102310.81
2023-02-12T02:19:26.572Z,102314.91
2023-02-12T02:25:33.710Z,102326.91
2023-02-12T02:30:49.420Z,102339.41
2023-02-12T02:36:12.186Z,102357.88
2023-02-12T02:41:28.070Z,102369.03
2023-02-12T02:46:43.476Z,102383.50
2023-02-12T02:51:57.703Z,102387.66
2023-02-12T02:57:11.665Z,102410.50
2023-02-12T03:02:26.002Z,102421.81
2023-02-12T03:07:39.394Z,102432.59
2023-02-12T03:12:53.109Z,102431.94
2023-02-12T03:18:03.047Z,102444.09
2023-02-12T03:23:15.694Z,102444.41
2023-02-12T03:28:28.217Z,102440.94
2023-02-12T03:33:45.769Z,102453.78
2023-02-12T03:38:58.477Z,102477.91
2023-02-12T03:44:15.609Z,102473.59
2023-02-12T03:49:33.385Z,102493.25
2023-02-12T03:54:40.049Z,102501.91
2023-02-12T03:59:48.418Z,102510.50
2023-02-12T04:04:56.210Z,102510.25
2023-02-12T04:10:02.710Z,102530.22
2023-02-12T04:15:34.192Z,102519.63
2023-02-12T04:20:56.246Z,102533.22
2023-02-12T04:26:19.576Z,102539.06
2023-02-12T04:31:32.287Z,102536.72
2023-02-12T04:36:48.977Z,102553.16
2023-02-12T04:41:55.951Z,102562.78
2023-02-12T04:47:03.935Z,102556.75
2023-02-12T04:52:12.804Z,102569.28
2023-02-12T04:57:20.903Z,102571.72
2023-02-12T05:02:29.452Z,102575.22
2023-02-12T05:07:37.295Z,102582.88
2023-02-12T05:12:43.601Z,102585.34
2023-02-12T05:17:50.481Z,102596.41
2023-02-12T05:22:58.397Z,102607.50
2023-02-12T05:28:05.016Z,102611.31
2023-02-12T05:33:11.818Z,102621.03
2023-02-12T05:38:23.344Z,102637.00
2023-02-12T05:43:30.170Z,102645.34
2023-02-12T05:48:38.212Z,102628.09
2023-02-12T05:53:47.596Z,102647.09
2023-02-12T05:58:57.627Z,102667.84
2023-02-12T06:04:07.127Z,102675.66
2023-02-12T06:09:17.370Z,102682.38
2023-02-12T06:14:24.130Z,102685.13
2023-02-12T06:19:30.795Z,102679.81
2023-02-12T06:24:40.569Z,102699.00
2023-02-12T06:29:47.248Z,102702.38
2023-02-12T06:34:53.696Z,102706.84
2023-02-12T06:40:01.710Z,102733.50
2023-02-12T06:45:10.904Z,102726.03
2023-02-12T06:50:19.473Z,102729.81
2023-02-12T06:55:28.083Z,102730.69
2023-02-12T07:00:34.486Z,102728.44
2023-02-12T07:05:43.312Z,102739.66
2023-02-12T07:10:53.244Z,102744.00
2023-02-12T07:15:59.787Z,102739.81
2023-02-12T07:21:08.441Z,102744.78
2023-02-12T07:26:17.808Z,102757.78
2023-02-12T07:31:26.152Z,102768.78
2023-02-12T07:36:35.195Z,102765.91
2023-02-12T07:41:43.106Z,102774.34
2023-02-12T07:46:50.882Z,102778.75
2023-02-12T07:51:57.389Z,102773.53
2023-02-12T07:57:05.437Z,102778.66
2023-02-12T08:02:12.657Z,102771.13
2023-02-12T08:07:21.690Z,102782.44
2023-02-12T08:12:30.398Z,102790.09
2023-02-12T08:17:37.973Z,102798.97
2023-02-12T08:22:44.607Z,102797.59
2023-02-12T08:27:53.642Z,102804.19
2023-02-12T08:33:01.209Z,102806.59
2023-02-12T08:38:08.037Z,102799.69
2023-02-12T08:43:16.151Z,102799.69
2023-02-12T08:48:22.797Z,102792.81
2023-02-12T08:53:29.505Z,102810.84
2023-02-12T08:58:38.411Z,102811.97
2023-02-12T09:03:46.138Z,102797.59
2023-02-12T09:08:55.550Z,102806.03
2023-02-12T09:14:06.327Z,102818.97
2023-02-12T09:19:15.827Z,102831.25
2023-02-12T09:24:22.389Z,102827.06
2023-02-12T09:29:30.335Z,102826.03
2023-02-12T09:34:37.644Z,102834.75
2023-02-12T09:39:44.929Z,102834.06
2023-02-12T09:45:00.969Z,102854.78
2023-02-12T09:50:39.019Z,102844.81
2023-02-12T09:55:46.409Z,102841.59
2023-02-12T10:00:56.148Z,102846.91
2023-02-12T10:06:07.063Z,102847.28
2023-02-12T10:11:47.695Z,102845.13
2023-02-12T10:17:06.042Z,102849.66
2023-02-12T10:22:26.357Z,102836.19
2023-02-12T10:27:42.870Z,102836.41
2023-02-12T10:32:56.566Z,102830.63
2023-02-12T10:38:09.602Z,102827.38
2023-02-12T10:43:18.816Z,102841.38
2023-02-12T10:48:37.340Z,102833.78
2023-02-12T10:53:47.140Z,102850.41
2023-02-12T10:58:59.764Z,102848.88
2023-02-12T11:09:49.998Z,102838.97
2023-02-12T11:15:01.422Z,102834.88
2023-02-12T11:20:28.420Z,102823.91
2023-02-12T11:25:40.225Z,102823.16
2023-02-12T11:31:01.292Z,102816.47
2023-02-12T11:36:24.758Z,102821.75
2023-02-12T11:41:37.848Z,102816.88
2023-02-12T11:46:52.460Z,102812.66
2023-02-12T11:52:08.780Z,102817.88
2023-02-12T11:57:43.960Z,102812.13
2023-02-12T12:03:05.545Z,102808.97
2023-02-12T12:08:26.930Z,102802.34
2023-02-12T12:13:46.732Z,102787.25
2023-02-12T12:19:18.814Z,102781.38
2023-02-12T12:24:33.947Z,102778.78
2023-02-12T12:29:55.584Z,102782.59
2023-02-12T12:35:08.580Z,102777.53
2023-02-12T12:40:53.951Z,102781.13
2023-02-12T12:46:31.949Z,102784.63
2023-02-12T12:52:03.757Z,102780.44
2023-02-12T12:57:24.361Z,102779.09
2023-02-12T13:03:23.767Z,102783.50
2023-02-12T13:09:05.078Z,102772.22
2023-02-12T13:14:45.614Z,102768.94
2023-02-12T13:20:09.747Z,102761.13
2023-02-12T13:25:31.734Z,102768.88
2023-02-12T13:30:46.365Z,102776.59
2023-02-12T13:36:01.503Z,102768.88
2023-02-12T13:41:13.996Z,102768.88
2023-02-12T13:46:32.760Z,102768.88
2023-02-12T13:51:47.213Z,102778.22
2023-02-12T13:56:58.422Z,102774.81
2023-02-12T14:02:08.518Z,102779.03
2023-02-12T14:07:22.259Z,102766.16
2023-02-12T14:12:36.630Z,102762.69
2023-02-12T14:17:56.766Z,102760.91
2023-02-12T14:23:30.046Z,102758.44
2023-02-12T14:28:55.551Z,102756.53
2023-02-12T14:34:50.122Z,102747.78
2023-02-12T14:40:43.274Z,102763.09
2023-02-12T14:45:54.416Z,102769.94
2023-02-12T14:51:07.756Z,102770.59
2023-02-12T14:56:24.838Z,102775.63
2023-02-12T15:01:40.239Z,102776.28
2023-02-12T15:06:57.815Z,102780.50
2023-02-12T15:12:19.724Z,102772.63
2023-02-12T15:17:36.365Z,102780.03
2023-02-12T15:22:46.115Z,102775.50
2023-02-12T15:27:59.858Z,102765.94
2023-02-12T15:33:23.603Z,102758.59
2023-02-12T15:38:36.905Z,102754.84
2023-02-12T15:43:52.919Z,102763.09
2023-02-12T15:49:13.910Z,102764.59
2023-02-12T15:54:24.740Z,102755.47
2023-02-12T15:59:39.343Z,102745.63
2023-02-12T16:04:50.830Z,102745.25
2023-02-12T16:10:03.678Z,102762.28
2023-02-12T16:15:38.780Z,102764.47
2023-02-12T16:20:52.384Z,102748.53
2023-02-12T16:26:05.222Z,102758.75
2023-02-12T16:31:20.324Z,102740.91
2023-02-12T16:36:46.323Z,102743.22
2023-02-12T16:42:00.134Z,102735.53
2023-02-12T16:47:24.463Z,102747.13
2023-02-12T16:52:41.603Z,102744.22
2023-02-12T16:57:56.229Z,102743.50
2023-02-12T17:03:07.631Z,102749.97
2023-02-12T17:08:19.836Z,102758.41
2023-02-12T17:13:34.295Z,102762.66
2023-02-12T17:18:54.438Z,102785.06
2023-02-12T17:24:04.426Z,102784.47
2023-02-12T17:29:14.103Z,102783.69
2023-02-12T17:34:39.710Z,102797.66
2023-02-12T17:39:57.140Z,102792.88
2023-02-12T17:45:07.014Z,102791.28
2023-02-12T17:50:20.684Z,102788.94
2023-02-12T17:55:31.429Z,102778.00
2023-02-12T18:00:43.160Z,102763.44
2023-02-12T18:05:54.666Z,102767.94
2023-02-12T18:11:09.284Z,102752.59
2023-02-12T18:16:20.151Z,102742.47
2023-02-12T18:21:35.230Z,102742.47
2023-02-12T18:26:47.139Z,102742.63
2023-02-12T18:32:00.965Z,102741.81
2023-02-12T18:37:17.317Z,102729.97
2023-02-12T18:42:29.250Z,102726.69
2023-02-12T18:47:41.265Z,102716.50
2023-02-12T18:52:54.394Z,102720.03
2023-02-12T18:58:04.926Z,102722.78
2023-02-12T19:03:16.721Z,102716.94
2023-02-12T19:08:35.930Z,102709.38
2023-02-12T19:13:47.023Z,102705.22
2023-02-12T19:18:59.499Z,102685.66
2023-02-12T19:24:15.223Z,102674.69
2023-02-12T19:29:25.914Z,102671.34
2023-02-12T19:34:37.982Z,102671.50
2023-02-12T19:39:48.809Z,102682.91
2023-02-12T19:44:58.422Z,102682.13
2023-02-12T19:50:10.759Z,102675.38
2023-02-12T19:55:23.081Z,102674.66
2023-02-12T20:00:33.801Z,102666.09
2023-02-12T20:05:54.011Z,102668.81
2023-02-12T20:11:14.290Z,102650.06
2023-02-12T20:16:32.067Z,102643.34
2023-02-12T20:21:45.731Z,102642.59
2023-02-12T20:27:02.229Z,102647.06
2023-02-12T20:32:12.933Z,102646.41
2023-02-12T20:37:23.932Z,102643.16
2023-02-12T20:42:49.288Z,102639.00
2023-02-12T20:48:04.012Z,102645.19
2023-02-12T20:53:15.116Z,102643.63
2023-02-12T20:58:28.855Z,102644.75
2023-02-12T21:03:53.835Z,102647.41
2023-02-12T21:09:02.742Z,102633.78
2023-02-12T21:14:24.245Z,102639.84
2023-02-12T21:19:35.436Z,102624.47
2023-02-12T21:24:45.557Z,102636.72
2023-02-12T21:29:58.772Z,102623.06
2023-02-12T21:35:08.336Z,102622.50
2023-02-12T21:40:19.288Z,102623.50
2023-02-12T21:45:28.692Z,102618.41
2023-02-12T21:50:38.429Z,102613.50
2023-02-12T21:55:48.578Z,102612.81
2023-02-12T22:00:57.378Z,102616.22
2023-02-12T22:06:05.085Z,102612.88
2023-02-12T22:11:14.273Z,102608.72
2023-02-12T22:16:25.143Z,102611.41
2023-02-12T22:21:34.534Z,102612.44
2023-02-12T22:26:41.231Z,102597.84
2023-02-12T22:31:50.118Z,102601.38
2023-02-12T22:36:56.516Z,102607.56
2023-02-12T22:42:03.037Z,102606.81
2023-02-12T22:47:11.037Z,102593.94
2023-02-12T22:52:18.104Z,102588.78
2023-02-12T22:57:25.731Z,102582.94
2023-02-12T23:02:34.387Z,102583.94
2023-02-12T23:07:41.162Z,102566.84
2023-02-12T23:12:47.943Z,102567.88
2023-02-12T23:17:56.014Z,102557.63
2023-02-12T23:23:02.582Z,102546.50
2023-02-12T23:28:09.385Z,102540.47
2023-02-12T23:33:17.364Z,102544.03
2023-02-12T23:38:23.897Z,102545.75
2023-02-12T23:43:30.726Z,102521.81
2023-02-12T23:48:38.891Z,102504.66
2023-02-12T23:53:45.444Z,102508.94
2023-02-12T23:58:51.968Z,102497.94
